Time;durP1;ratioP1;P1;durP2;ratioP2;P2;SDS_P1;SDS_P2;PMS_P1;PMS_P2;Temp;Humidity;BMP_temperature;BMP_pressure;BME280_temperature;BME280_humidity;BME280_pressure;Samples;Min_cycle;Max_cycle;Signal;HPM_P1;HPM_P2
2022/02/09 00:04:09;;;;;;;12.02;5.03;;;;;;;;;;5037168;28;20458;-74
2022/02/09 00:06:44;;;;;;;9.32;4.03;;;;;;;;;;5036392;28;20029;-74
2022/02/09 00:09:11;;;;;;;11.70;5.00;;;;;;;;;;5037039;28;20026;-74
2022/02/09 00:11:46;;;;;;;9.13;4.30;;;;;;;;;;5036793;28;20143;-74
2022/02/09 00:14:23;;;;;;;11.07;4.53;;;;;;;;;;5035099;28;20112;-74
2022/02/09 00:17:27;;;;;;;8.25;4.07;;;;;;;;;;5035440;28;20017;-74
2022/02/09 00:23:37;;;;;;;13.60;6.13;;;;;;;;;;5036571;28;20275;-74
2022/02/09 00:26:31;;;;;;;9.55;4.07;;;;;;;;;;5039306;28;20063;-74
2022/02/09 00:28:51;;;;;;;16.58;4.90;;;;;;;;;;5035930;28;20047;-74
2022/02/09 00:37:24;;;;;;;12.60;4.72;;;;;;;;;;5036544;28;20039;-74
2022/02/09 00:43:10;;;;;;;16.05;5.10;;;;;;;;;;5035873;28;20078;-74
2022/02/09 01:40:41;;;;;;;13.48;6.30;;;;;;;;;;5035239;28;20117;-74
2022/02/09 01:56:46;;;;;;;16.83;6.28;;;;;;;;;;5042988;28;20048;-74
2022/02/09 01:59:12;;;;;;;14.85;5.13;;;;;;;;;;5034355;28;20112;-74
2022/02/09 02:01:38;;;;;;;13.75;6.97;;;;;;;;;;5033406;28;20047;-74
2022/02/09 02:04:05;;;;;;;17.30;7.40;;;;;;;;;;5033783;28;20393;-74
2022/02/09 02:06:33;;;;;;;14.32;6.47;;;;;;;;;;5034155;28;20147;-74
2022/02/09 02:08:59;;;;;;;11.10;5.30;;;;;;;;;;5033405;28;20083;-74
2022/02/09 02:11:34;;;;;;;10.18;4.50;;;;;;;;;;5034530;28;20033;-74
2022/02/09 02:14:13;;;;;;;12.55;5.47;;;;;;;;;;5032939;28;20025;-74
2022/02/09 02:16:51;;;;;;;16.73;5.97;;;;;;;;;;5033247;28;20068;-74
2022/02/09 02:22:02;;;;;;;14.02;6.07;;;;;;;;;;5034327;28;20037;-74
2022/02/09 02:29:57;;;;;;;15.98;6.95;;;;;;;;;;5034180;28;20026;-75
2022/02/09 02:33:15;;;;;;;19.63;7.50;;;;;;;;;;5034272;28;20036;-75
2022/02/09 02:41:37;;;;;;;9.85;4.18;;;;;;;;;;5033722;28;20116;-75
2022/02/09 02:44:15;;;;;;;13.48;5.07;;;;;;;;;;5033804;28;20036;-75
2022/02/09 02:57:36;;;;;;;9.30;3.28;;;;;;;;;;5033814;28;20485;-75
2022/02/09 03:11:08;;;;;;;13.52;3.63;;;;;;;;;;5033865;28;20500;-75
2022/02/09 03:13:38;;;;;;;9.73;4.22;;;;;;;;;;5033546;28;20071;-75
2022/02/09 03:16:13;;;;;;;10.73;4.55;;;;;;;;;;5033169;28;20052;-75
2022/02/09 03:24:10;;;;;;;5.97;3.08;;;;;;;;;;5033192;28;20065;-75
2022/02/09 03:27:17;;;;;;;9.10;3.70;;;;;;;;;;5033502;28;20018;-75
2022/02/09 03:58:51;;;;;;;8.50;4.35;;;;;;;;;;5032715;28;20018;-76
2022/02/09 04:01:19;;;;;;;9.88;3.97;;;;;;;;;;5031878;28;20378;-76
2022/02/09 04:03:45;;;;;;;11.10;4.63;;;;;;;;;;5032993;28;20036;-75
2022/02/09 04:06:11;;;;;;;8.65;4.43;;;;;;;;;;5032689;28;20492;-75
2022/02/09 04:08:46;;;;;;;14.07;4.75;;;;;;;;;;5031759;28;20104;-75
2022/02/09 04:11:20;;;;;;;10.50;4.13;;;;;;;;;;5031840;28;20021;-75
2022/02/09 04:19:15;;;;;;;8.40;3.83;;;;;;;;;;5032658;28;20050;-75
2022/02/09 04:43:40;;;;;;;14.90;6.10;;;;;;;;;;5036536;28;20025;-75
2022/02/09 04:49:22;;;;;;;10.70;4.70;;;;;;;;;;5035803;28;20039;-75
2022/02/09 04:52:16;;;;;;;10.65;4.65;;;;;;;;;;5034776;28;20040;-75
2022/02/09 04:54:52;;;;;;;12.60;5.13;;;;;;;;;;5034495;28;20485;-75
2022/02/09 04:57:42;;;;;;;11.35;5.18;;;;;;;;;;5036142;28;20144;-76
2022/02/09 05:24:48;;;;;;;18.95;8.93;;;;;;;;;;5036272;28;20033;-77
2022/02/09 05:27:18;;;;;;;14.57;8.05;;;;;;;;;;5035291;28;20030;-77
2022/02/09 05:29:44;;;;;;;16.88;7.57;;;;;;;;;;5035022;28;20052;-77
2022/02/09 05:32:10;;;;;;;15.55;7.45;;;;;;;;;;5034032;28;20104;-77
2022/02/09 05:34:36;;;;;;;17.23;6.72;;;;;;;;;;5034309;28;20025;-77
2022/02/09 05:37:04;;;;;;;22.15;8.75;;;;;;;;;;5034850;28;20099;-76
2022/02/09 05:39:30;;;;;;;18.13;7.97;;;;;;;;;;5035125;28;20025;-77
2022/02/09 05:41:56;;;;;;;15.35;7.75;;;;;;;;;;5035205;28;20037;-77
2022/02/09 05:44:23;;;;;;;14.93;7.53;;;;;;;;;;5034847;28;20049;-78
2022/02/09 05:47:57;;;;;;;15.70;8.60;;;;;;;;;;5035328;28;20104;-78
2022/02/09 05:49:48;;;;;;;24.58;11.73;;;;;;;;;;5037221;28;20041;-77
2022/02/09 05:52:23;;;;;;;28.35;11.43;;;;;;;;;;5033559;28;20021;-77
2022/02/09 05:59:48;;;;;;;26.13;10.40;;;;;;;;;;5034752;28;20033;-78
2022/02/09 06:02:16;;;;;;;21.48;10.57;;;;;;;;;;5032159;28;20064;-78
2022/02/09 06:04:42;;;;;;;21.83;9.88;;;;;;;;;;5031184;28;20143;-77
2022/02/09 06:07:08;;;;;;;23.13;9.88;;;;;;;;;;5031560;28;20029;-78
2022/02/09 06:09:36;;;;;;;24.13;10.45;;;;;;;;;;5032868;28;20030;-79
2022/02/09 06:20:01;;;;;;;34.33;16.42;;;;;;;;;;5030226;28;20057;-83
2022/02/09 06:22:27;;;;;;;37.83;17.73;;;;;;;;;;5035456;28;20033;-81
2022/02/09 06:24:53;;;;;;;26.65;13.63;;;;;;;;;;5034041;28;20202;-77
2022/02/09 06:27:19;;;;;;;25.13;11.68;;;;;;;;;;5033744;28;20021;-79
2022/02/09 06:29:47;;;;;;;26.15;14.25;;;;;;;;;;5031201;28;20092;-80
2022/02/09 06:32:14;;;;;;;24.27;12.77;;;;;;;;;;5034210;28;20484;-81
2022/02/09 06:34:42;;;;;;;29.75;13.48;;;;;;;;;;5032087;28;20349;-81
2022/02/09 06:37:24;;;;;;;25.38;13.65;;;;;;;;;;5033657;28;20087;-79
2022/02/09 06:39:57;;;;;;;22.58;10.93;;;;;;;;;;5034304;28;20029;-81
2022/02/09 06:42:23;;;;;;;21.80;11.43;;;;;;;;;;5033232;28;20036;-82
2022/02/09 06:44:51;;;;;;;18.17;10.00;;;;;;;;;;5035013;28;20017;-82
2022/02/09 06:47:24;;;;;;;24.15;12.55;;;;;;;;;;5034610;28;20071;-82
2022/02/09 06:50:06;;;;;;;24.25;12.75;;;;;;;;;;5033627;28;20024;-79
2022/02/09 06:52:33;;;;;;;24.17;12.80;;;;;;;;;;5034206;28;20029;-76
2022/02/09 06:55:14;;;;;;;23.35;13.45;;;;;;;;;;5035115;28;20017;-83
2022/02/09 06:58:03;;;;;;;41.25;21.85;;;;;;;;;;5032662;28;20025;-82
2022/02/09 07:00:29;;;;;;;39.90;14.75;;;;;;;;;;5032703;28;20069;-77
2022/02/09 07:02:56;;;;;;;24.25;13.15;;;;;;;;;;5031756;28;20412;-78
2022/02/09 07:05:22;;;;;;;22.58;12.15;;;;;;;;;;5032926;28;20079;-82
2022/02/09 07:07:49;;;;;;;24.70;10.52;;;;;;;;;;5032627;28;20014;-79
2022/02/09 07:10:15;;;;;;;20.98;11.10;;;;;;;;;;5033087;28;20389;-79
2022/02/09 07:12:41;;;;;;;18.55;9.38;;;;;;;;;;5032844;28;20113;-76
2022/02/09 07:15:11;;;;;;;13.80;7.35;;;;;;;;;;5031736;28;20030;-76
2022/02/09 07:17:37;;;;;;;15.57;7.82;;;;;;;;;;5027927;28;20386;-81
2022/02/09 07:20:13;;;;;;;12.25;6.05;;;;;;;;;;5029592;28;20045;-81
2022/02/09 07:22:39;;;;;;;12.52;5.75;;;;;;;;;;5031469;28;20030;-80
2022/02/09 07:25:14;;;;;;;13.85;6.05;;;;;;;;;;5032796;28;20022;-82
2022/02/09 07:27:51;;;;;;;16.38;5.50;;;;;;;;;;5030788;28;20465;-80
2022/02/09 07:30:20;;;;;;;13.45;6.28;;;;;;;;;;5030355;28;20053;-81
2022/02/09 07:32:47;;;;;;;13.93;6.47;;;;;;;;;;5023373;28;20021;-80
2022/02/09 07:35:14;;;;;;;18.50;9.00;;;;;;;;;;5032259;28;20034;-73
2022/02/09 07:37:40;;;;;;;14.65;7.05;;;;;;;;;;5031769;28;20028;-74
2022/02/09 07:40:10;;;;;;;17.55;7.97;;;;;;;;;;5030129;28;20088;-75
2022/02/09 07:42:43;;;;;;;16.13;8.15;;;;;;;;;;5031367;28;20024;-76
2022/02/09 07:52:51;;;;;;;17.30;7.57;;;;;;;;;;5029715;28;20037;-75
2022/02/09 07:55:17;;;;;;;14.88;7.15;;;;;;;;;;5028341;28;20048;-76
2022/02/09 07:57:43;;;;;;;17.67;5.93;;;;;;;;;;5029265;28;20033;-79
2022/02/09 08:00:13;;;;;;;20.90;9.45;;;;;;;;;;5028344;28;20079;-79
2022/02/09 08:02:39;;;;;;;19.88;9.52;;;;;;;;;;5032107;28;20143;-79
2022/02/09 08:05:05;;;;;;;21.10;9.25;;;;;;;;;;5034208;28;20037;-78
2022/02/09 08:07:31;;;;;;;22.35;11.43;;;;;;;;;;5035478;28;20438;-80
2022/02/09 08:09:59;;;;;;;23.90;10.23;;;;;;;;;;5035225;28;20191;-77
2022/02/09 08:20:33;;;;;;;14.05;6.45;;;;;;;;;;5034943;28;20061;-79
2022/02/09 08:26:45;;;;;;;16.95;8.50;;;;;;;;;;5029486;28;20033;-77
2022/02/09 08:33:41;;;;;;;21.23;10.63;;;;;;;;;;5029477;28;20071;-76
2022/02/09 08:36:08;;;;;;;25.38;10.80;;;;;;;;;;5032390;28;20120;-74
2022/02/09 08:38:35;;;;;;;22.83;12.35;;;;;;;;;;5029660;28;20615;-77
2022/02/09 08:41:02;;;;;;;23.50;13.55;;;;;;;;;;5030190;28;20032;-73
2022/02/09 08:43:28;;;;;;;37.97;15.20;;;;;;;;;;5033664;28;20026;-75
2022/02/09 08:45:54;;;;;;;31.95;19.92;;;;;;;;;;5033690;28;20453;-82
2022/02/09 08:48:21;;;;;;;22.15;13.25;;;;;;;;;;5032296;28;20022;-78
2022/02/09 08:50:51;;;;;;;21.05;13.30;;;;;;;;;;5030582;28;20013;-77
2022/02/09 08:53:18;;;;;;;18.15;10.95;;;;;;;;;;5031515;28;20466;-80
2022/02/09 08:55:45;;;;;;;18.52;9.75;;;;;;;;;;5033181;28;20583;-75
2022/02/09 08:58:12;;;;;;;19.75;10.57;;;;;;;;;;5032616;28;20025;-77
2022/02/09 09:00:40;;;;;;;31.00;11.93;;;;;;;;;;5033039;28;20389;-78
2022/02/09 09:05:58;;;;;;;14.77;7.80;;;;;;;;;;5031611;28;20091;-76
2022/02/09 10:01:03;;;;;;;11.60;5.60;;;;;;;;;;5032809;28;20041;-77
2022/02/09 10:31:24;;;;;;;20.63;8.57;;;;;;;;;;5035056;28;20037;-71
2022/02/09 10:33:51;;;;;;;25.92;12.82;;;;;;;;;;5014460;28;20160;-69
2022/02/09 10:36:20;;;;;;;19.52;10.68;;;;;;;;;;5024571;28;20029;-70
2022/02/09 10:38:47;;;;;;;33.97;16.67;;;;;;;;;;5031222;28;20017;-69
2022/02/09 10:41:17;;;;;;;23.60;10.52;;;;;;;;;;5032173;28;20041;-72
2022/02/09 10:43:45;;;;;;;13.80;6.88;;;;;;;;;;5032080;28;20371;-70
2022/02/09 10:46:22;;;;;;;11.60;5.45;;;;;;;;;;5030682;28;20034;-73
2022/02/09 10:49:01;;;;;;;13.23;6.13;;;;;;;;;;5030009;28;20025;-75
2022/02/09 10:51:32;;;;;;;24.95;11.85;;;;;;;;;;5030913;28;20096;-71
2022/02/09 10:54:10;;;;;;;13.95;6.00;;;;;;;;;;5031413;28;20032;-71
2022/02/09 10:56:38;;;;;;;19.10;8.55;;;;;;;;;;5030533;28;20022;-76
2022/02/09 10:59:06;;;;;;;16.42;7.43;;;;;;;;;;5031566;28;20052;-72
2022/02/09 11:01:33;;;;;;;20.38;10.40;;;;;;;;;;5030333;28;20086;-72
2022/02/09 11:03:59;;;;;;;16.95;9.20;;;;;;;;;;5029431;28;20033;-70
2022/02/09 11:06:28;;;;;;;12.30;5.18;;;;;;;;;;5031821;28;20112;-75
2022/02/09 11:08:54;;;;;;;10.57;4.50;;;;;;;;;;5030456;28;20468;-72
2022/02/09 11:11:21;;;;;;;13.38;7.60;;;;;;;;;;5031998;28;20032;-72
2022/02/09 11:13:48;;;;;;;18.08;6.75;;;;;;;;;;5030304;28;20512;-71
2022/02/09 11:16:16;;;;;;;20.52;8.00;;;;;;;;;;5031509;28;20029;-71
2022/02/09 11:18:43;;;;;;;10.98;5.65;;;;;;;;;;5029431;28;20555;-75
2022/02/09 11:21:13;;;;;;;8.45;4.38;;;;;;;;;;5027623;28;20401;-71
2022/02/09 11:23:41;;;;;;;12.27;6.53;;;;;;;;;;5029993;28;20079;-72
2022/02/09 11:26:25;;;;;;;13.65;6.65;;;;;;;;;;5028191;28;20055;-75
2022/02/09 11:29:16;;;;;;;15.68;7.25;;;;;;;;;;5027992;28;20569;-72
2022/02/09 11:32:07;;;;;;;18.65;10.23;;;;;;;;;;5030292;28;20079;-74
2022/02/09 11:35:04;;;;;;;11.65;6.15;;;;;;;;;;5030951;28;20029;-73
2022/02/09 11:37:45;;;;;;;12.90;5.63;;;;;;;;;;5035294;28;20026;-73
2022/02/09 11:40:24;;;;;;;15.27;5.30;;;;;;;;;;5034355;28;20026;-69
2022/02/09 11:42:59;;;;;;;12.63;4.32;;;;;;;;;;5032434;28;20515;-74
2022/02/09 11:49:52;;;;;;;11.70;5.75;;;;;;;;;;5066756;28;20039;-75
2022/02/09 12:00:36;;;;;;;16.58;4.90;;;;;;;;;;5108238;28;20498;-74
2022/02/09 12:09:18;;;;;;;14.02;6.97;;;;;;;;;;5110395;28;20062;-71
2022/02/09 12:11:49;;;;;;;15.68;7.32;;;;;;;;;;5107168;28;20024;-75
2022/02/09 12:14:35;;;;;;;14.77;6.25;;;;;;;;;;5105636;28;20817;-72
2022/02/09 12:19:50;;;;;;;8.45;4.47;;;;;;;;;;5110258;28;20483;-69
2022/02/09 12:24:17;;;;;;;5.22;2.65;;;;;;;;;;5109961;27;20450;-68
2022/02/09 12:27:01;;;;;;;5.60;3.17;;;;;;;;;;5098963;28;20020;-72
2022/02/09 12:30:39;;;;;;;14.25;7.60;;;;;;;;;;5068058;28;20473;-70
2022/02/09 12:33:05;;;;;;;13.73;6.15;;;;;;;;;;5054224;28;20032;-71
2022/02/09 12:36:33;;;;;;;14.15;6.88;;;;;;;;;;5068247;28;20407;-69
2022/02/09 12:44:59;;;;;;;10.63;6.07;;;;;;;;;;5070001;28;20427;-70
2022/02/09 12:47:32;;;;;;;10.93;5.68;;;;;;;;;;5070086;28;20028;-73
2022/02/09 12:50:13;;;;;;;17.02;7.75;;;;;;;;;;5109666;27;20310;-73
2022/02/09 12:57:05;;;;;;;22.38;6.30;;;;;;;;;;5101806;27;20450;-73
2022/02/09 12:59:31;;;;;;;13.90;6.45;;;;;;;;;;5096737;28;20106;-75
2022/02/09 13:01:59;;;;;;;16.70;7.75;;;;;;;;;;5069786;28;20032;-76
2022/02/09 13:06:13;;;;;;;21.90;9.27;;;;;;;;;;5130489;27;20319;-75
2022/02/09 13:08:39;;;;;;;17.30;7.35;;;;;;;;;;5110665;28;20676;-73
2022/02/09 13:11:20;;;;;;;16.05;7.85;;;;;;;;;;5110383;28;20431;-70
2022/02/09 13:13:52;;;;;;;14.02;7.07;;;;;;;;;;5106246;28;20533;-73
2022/02/09 13:16:35;;;;;;;12.15;6.25;;;;;;;;;;5102300;28;20028;-73
2022/02/09 13:19:20;;;;;;;13.57;5.93;;;;;;;;;;5108695;28;20504;-75
2022/02/09 14:02:44;;;;;;;11.80;5.97;;;;;;;;;;5042909;28;20433;-74
2022/02/09 14:16:38;;;;;;;16.80;8.95;;;;;;;;;;5110827;28;20123;-73
2022/02/09 14:53:07;;;;;;;19.70;9.27;;;;;;;;;;5109841;27;20396;-72
2022/02/09 15:00:35;;;;;;;13.45;8.20;;;;;;;;;;5110853;28;20065;-71
2022/02/09 15:10:53;;;;;;;23.88;12.75;;;;;;;;;;5109317;28;20031;-71
2022/02/09 15:13:30;;;;;;;21.58;10.27;;;;;;;;;;5110326;27;20523;-72
2022/02/09 15:23:42;;;;;;;20.98;12.57;;;;;;;;;;5110523;28;20604;-71
2022/02/09 15:26:08;;;;;;;16.60;10.95;;;;;;;;;;5109039;28;20024;-72
2022/02/09 15:28:36;;;;;;;14.35;9.45;;;;;;;;;;5108820;28;20131;-71
2022/02/09 15:31:08;;;;;;;23.15;12.60;;;;;;;;;;5108999;28;20493;-72
2022/02/09 15:33:45;;;;;;;30.98;16.60;;;;;;;;;;5109791;28;20464;-71
2022/02/09 15:36:15;;;;;;;28.38;15.23;;;;;;;;;;5108501;28;20077;-71
2022/02/09 15:38:47;;;;;;;33.22;18.90;;;;;;;;;;5109220;28;20028;-70
2022/02/09 15:41:34;;;;;;;26.75;15.50;;;;;;;;;;5109286;28;20106;-72
2022/02/09 15:58:17;;;;;;;40.33;23.38;;;;;;;;;;5110189;28;20054;-71
2022/02/09 16:16:30;;;;;;;32.97;20.42;;;;;;;;;;5093457;28;20029;-71
2022/02/09 16:18:02;;;;;;;43.15;23.88;;;;;;;;;;5090533;28;20031;-72
2022/02/09 16:23:00;;;;;;;32.92;22.35;;;;;;;;;;5095751;28;20024;-71
2022/02/09 16:44:37;;;;;;;26.40;14.68;;;;;;;;;;5115657;28;20028;-72
2022/02/09 16:50:15;;;;;;;25.40;13.80;;;;;;;;;;5073569;28;20032;-72
2022/02/09 16:52:51;;;;;;;27.17;14.98;;;;;;;;;;5103722;28;20104;-72
2022/02/09 16:55:56;;;;;;;27.95;17.02;;;;;;;;;;5114623;28;20051;-72
2022/02/09 17:20:21;;;;;;;20.42;12.55;;;;;;;;;;5115495;28;20038;-71
2022/02/09 17:22:47;;;;;;;18.85;11.65;;;;;;;;;;5115378;28;20015;-71
2022/02/09 17:25:13;;;;;;;22.80;13.27;;;;;;;;;;5115518;28;20020;-71
2022/02/09 17:27:42;;;;;;;20.33;12.30;;;;;;;;;;5113677;28;20472;-71
2022/02/09 17:33:00;;;;;;;27.67;15.55;;;;;;;;;;5115351;28;20047;-72
2022/02/09 17:35:31;;;;;;;25.92;14.35;;;;;;;;;;5114823;28;20058;-72
2022/02/09 17:56:58;;;;;;;36.13;18.55;;;;;;;;;;5114987;28;20035;-73
2022/02/09 17:59:25;;;;;;;37.05;19.60;;;;;;;;;;5113578;28;20043;-73
2022/02/09 18:01:52;;;;;;;30.70;16.35;;;;;;;;;;5114133;28;20019;-72
2022/02/09 18:04:21;;;;;;;35.35;19.48;;;;;;;;;;5114597;28;20015;-72
2022/02/09 18:06:55;;;;;;;35.28;19.05;;;;;;;;;;5113212;28;20030;-72
2022/02/09 18:09:31;;;;;;;38.05;21.77;;;;;;;;;;5114480;28;20387;-73
2022/02/09 18:15:01;;;;;;;34.85;21.70;;;;;;;;;;5114413;28;20023;-73
2022/02/09 18:26:18;;;;;;;38.35;23.58;;;;;;;;;;5113868;28;20030;-71
2022/02/09 18:31:16;;;;;;;30.15;20.10;;;;;;;;;;5113820;28;20035;-72
2022/02/09 18:44:25;;;;;;;53.47;32.58;;;;;;;;;;5113495;28;20030;-72
2022/02/09 18:47:09;;;;;;;41.60;24.20;;;;;;;;;;5112732;28;20501;-71
2022/02/09 18:58:39;;;;;;;25.00;13.85;;;;;;;;;;5113685;28;20039;-71
2022/02/09 19:05:55;;;;;;;23.90;13.10;;;;;;;;;;5113582;28;20076;-72
2022/02/09 19:08:38;;;;;;;23.73;12.93;;;;;;;;;;5112394;28;20062;-71
2022/02/09 19:19:33;;;;;;;21.05;12.05;;;;;;;;;;5113131;28;20151;-73
2022/02/09 19:28:30;;;;;;;18.42;9.77;;;;;;;;;;5113547;28;20115;-71
2022/02/09 19:44:31;;;;;;;30.58;16.35;;;;;;;;;;5117291;28;20031;-72
2022/02/09 19:49:04;;;;;;;30.00;15.85;;;;;;;;;;5116825;28;20030;-72
2022/02/09 19:54:10;;;;;;;15.85;10.05;;;;;;;;;;5116698;28;20031;-72
2022/02/09 19:56:39;;;;;;;10.93;6.65;;;;;;;;;;5115890;28;20016;-72
2022/02/09 19:59:15;;;;;;;13.55;8.95;;;;;;;;;;5117019;28;20020;-71
2022/02/09 20:01:43;;;;;;;11.60;7.20;;;;;;;;;;5115326;28;20024;-70
2022/02/09 20:04:09;;;;;;;17.40;10.18;;;;;;;;;;5116885;28;20022;-72
2022/02/09 20:06:36;;;;;;;23.00;14.48;;;;;;;;;;5116902;28;20019;-72
2022/02/09 20:09:03;;;;;;;34.15;20.52;;;;;;;;;;5116501;28;20030;-72
2022/02/09 20:11:29;;;;;;;48.17;27.58;;;;;;;;;;5116854;28;20038;-71
2022/02/09 20:13:55;;;;;;;43.15;26.73;;;;;;;;;;5115373;28;20030;-71
2022/02/09 20:16:22;;;;;;;43.22;25.63;;;;;;;;;;5115057;28;20159;-71
2022/02/09 20:18:52;;;;;;;28.60;17.42;;;;;;;;;;5115316;28;20024;-72
2022/02/09 20:21:21;;;;;;;20.75;13.27;;;;;;;;;;5116618;28;20024;-71
2022/02/09 20:23:48;;;;;;;21.38;13.10;;;;;;;;;;5114984;28;20028;-71
2022/02/09 20:26:14;;;;;;;16.77;11.35;;;;;;;;;;5115154;28;20020;-70
2022/02/09 20:28:47;;;;;;;18.17;10.57;;;;;;;;;;5114877;28;20050;-72
2022/02/09 20:31:17;;;;;;;17.50;8.82;;;;;;;;;;5114814;28;20407;-71
2022/02/09 20:33:50;;;;;;;15.32;8.55;;;;;;;;;;5116374;28;20027;-72
2022/02/09 20:36:18;;;;;;;14.52;8.23;;;;;;;;;;5115945;28;20383;-73
2022/02/09 20:38:47;;;;;;;15.13;8.90;;;;;;;;;;5114920;28;20030;-73
2022/02/09 20:41:15;;;;;;;14.98;8.52;;;;;;;;;;5116140;28;20027;-73
2022/02/09 20:43:58;;;;;;;15.02;8.73;;;;;;;;;;5115637;28;20058;-72
2022/02/09 20:46:29;;;;;;;16.48;9.35;;;;;;;;;;5114938;28;20027;-72
2022/02/09 20:48:55;;;;;;;14.38;9.30;;;;;;;;;;5116059;28;20015;-72
2022/02/09 20:51:22;;;;;;;12.98;9.05;;;;;;;;;;5114092;28;20053;-72
2022/02/09 20:53:48;;;;;;;14.70;9.25;;;;;;;;;;5115983;28;20015;-73
2022/02/09 20:56:14;;;;;;;15.73;9.15;;;;;;;;;;5114639;28;20034;-72
2022/02/09 20:58:43;;;;;;;22.00;11.15;;;;;;;;;;5114259;28;20076;-73
2022/02/09 21:01:14;;;;;;;25.95;15.95;;;;;;;;;;5115944;28;20024;-72
2022/02/09 21:03:49;;;;;;;26.15;16.20;;;;;;;;;;5116103;28;20024;-72
2022/02/09 21:09:39;;;;;;;17.35;9.30;;;;;;;;;;5115733;28;20102;-73
2022/02/09 21:11:51;;;;;;;16.40;9.45;;;;;;;;;;5109149;28;20134;-73
2022/02/09 21:15:13;;;;;;;11.52;7.47;;;;;;;;;;5115613;28;20016;-73
2022/02/09 21:22:48;;;;;;;14.75;8.57;;;;;;;;;;5106054;28;20492;-74
2022/02/09 21:28:36;;;;;;;22.35;11.18;;;;;;;;;;5115018;28;20031;-72
2022/02/09 21:49:19;;;;;;;19.65;10.65;;;;;;;;;;5114543;28;20020;-72
2022/02/09 21:55:25;;;;;;;15.63;8.77;;;;;;;;;;5114441;28;20023;-73
2022/02/09 21:57:58;;;;;;;16.00;8.70;;;;;;;;;;5113462;28;20100;-72
2022/02/09 22:01:00;;;;;;;17.98;11.13;;;;;;;;;;5113073;28;20098;-71
2022/02/09 22:19:56;;;;;;;48.67;28.30;;;;;;;;;;5114376;28;20391;-72
2022/02/09 22:27:40;;;;;;;47.95;28.50;;;;;;;;;;5114562;28;20541;-71
2022/02/09 22:56:51;;;;;;;41.60;22.13;;;;;;;;;;5093308;28;20066;-72
2022/02/09 22:59:27;;;;;;;35.97;18.15;;;;;;;;;;5093105;28;20028;-72
2022/02/09 23:01:59;;;;;;;51.60;29.80;;;;;;;;;;5092004;28;20028;-71
2022/02/09 23:04:38;;;;;;;51.28;27.80;;;;;;;;;;5092823;28;20027;-71
2022/02/09 23:07:25;;;;;;;44.72;26.63;;;;;;;;;;5093214;28;20049;-71
2022/02/09 23:10:04;;;;;;;60.53;29.63;;;;;;;;;;5091947;28;20027;-71
2022/02/09 23:12:44;;;;;;;67.88;36.13;;;;;;;;;;5091950;28;20123;-71
